Terminal Aerodrome Forecast
Issued by NWS

Home | Current Version | Previous Version | Text Only | Print | Product List | Glossary On
Versions: 1 2 3 4 5 6 7 8 9 10 11 12 13 14 15 16 17 18 19 20 21 22 23 24
834
FTUS43 KILX 171724
TAFBMI
TAF
KBMI 171724Z 1718/1818 16014G24KT 6SM BR BKN025
     FM171900 17015G25KT P6SM VCSH OVC030
     FM180000 17013G23KT P6SM -SHRA OVC010
     FM180400 19015G23KT 2SM SHRA BR OVC008
     FM180700 23008KT 1 1/2SM SHRA BR OVC003
     FM181600 33020G30KT 3SM SHRA BR OVC008=

USA.gov is the U.S. government's official web portal to all federal, state and local government web resources and services.